Maersk Lirquen — VRKB8 — position and weather

sailwx.info

Track history (hours):
 
Tides and Currents Weather Stations Pressure Air Temp Water Temp Dewpoint Dewpoint Depression Visibility Wind Speed Wind Dir Waves Ship Positions

Maersk Lirquen

Last reported at 2015-May-16 08:18 UTC. Time now 2015-May-27 13:54 UTC.
Position N 36°01' E 120°22'.
Warning: this ship's position is 11 days out of date.

Length 300 m; draft 7.5 m.

Type: Ship (hazmat cat A). MMSI: 477423500.

Date/timePositionNaut miles runAvg speedWind from/ knotsBaromVisibWave heightAir tempDewpointWater temp
2015-May-16 08:18N 36°01' E 120°22'15219.7
2015-May-16 00:33N 34°51' E 123°09'2220.8
2015-May-15 23:31N 34°41' E 123°32'2020.6
2015-May-15 22:33N 34°32' E 123°53'2020.3
2015-May-15 21:33N 34°20' E 124°13'2120.8
2015-May-15 20:33N 34°09' E 124°35'2020.3
2015-May-15 19:33N 33°60' E 124°56'2120.8
2015-May-15 18:33N 33°56' E 125°21'131 2.9
2015-May-13 22:04N 31°46' E 125°01'815.8
2015-May-13 21:33N 31°41' E 124°53'1515.3
2015-May-13 20:33N 31°33' E 124°38'1515.2
2015-May-13 19:33N 31°24' E 124°24'1715.4
2015-May-13 18:27N 31°14' E 124°08'1415.6
2015-May-13 17:33N 31°05' E 123°55'1615.6
2015-May-13 16:32N 30°56' E 123°40'1616.2
2015-May-13 15:33N 30°46' E 123°25'1616.2
2015-May-13 14:33N 30°37' E 123°10'1716.3
2015-May-13 13:32N 30°35' E 122°50'1616.1
2015-May-13 12:33N 30°34' E 122°32'1414.2
2015-May-13 11:33N 30°33' E 122°16'1110.4
2015-May-13 10:30N 30°37' E 122°04'2 0.7
2015-May-13 08:20N 30°38' E 122°03'0 0.0
2015-May-13 06:32N 30°38' E 122°03'0 0.0
2015-May-13 05:32N 30°38' E 122°03'0 0.0
2015-May-13 04:32N 30°38' E 122°03'0 0.0
2015-May-13 03:32N 30°38' E 122°03'0 0.0
2015-May-13 02:29N 30°38' E 122°03'0 0.0
2015-May-13 01:29N 30°38' E 122°03'0 0.0
2015-May-13 00:29N 30°38' E 122°03'0 0.0
2015-May-12 23:32N 30°38' E 122°03'0 0.0
2015-May-12 22:32N 30°38' E 122°03'0 0.0
2015-May-12 21:32N 30°38' E 122°03'0 0.4
2015-May-12 20:33N 30°38' E 122°03'1111.1
2015-May-12 19:33N 30°34' E 122°15'5 4.8
2015-May-12 18:33N 30°33' E 122°20'1110.7
2015-May-12 17:33N 30°30' E 122°32'1 1.3
2015-May-12 16:29N 30°29' E 122°33'0 0.1
2015-May-12 15:32N 30°29' E 122°33'0 0.0
2015-May-12 14:32N 30°29' E 122°33'0 0.0
2015-May-12 13:23N 30°29' E 122°33'0 0.1
2015-May-12 11:08N 30°29' E 122°33'0 0.1
2015-May-12 09:09N 30°29' E 122°33'4 4.8
2015-May-12 08:23N 30°29' E 122°38'1314.1
2015-May-12 07:27N 30°23' E 122°51'1816.1
2015-May-12 06:22N 30°08' E 123°03'1923.2
2015-May-12 05:33N 29°49' E 123°04'2322.6
2015-May-12 04:32N 29°27' E 122°60'3022.0
2015-May-12 03:10N 28°60' E 122°45'28621.0
2015-May-11 13:33N 24°59' E 119°53'2423.9
2015-May-11 12:31N 24°43' E 119°32'2223.2
2015-May-11 11:33N 24°29' E 119°12'2222.5
2015-May-11 10:33N 24°15' E 118°54'2222.4
2015-May-11 09:34N 24°01' E 118°34'2322.7
2015-May-11 08:33N 23°46' E 118°15'2221.9
2015-May-11 07:33N 23°32' E 117°57'4722.7
2015-May-11 05:28N 23°03' E 117°17'2022.4
2015-May-11 04:33N 22°52' E 116°58'2019.9
2015-May-11 03:33N 22°41' E 116°40'11310.0
2015-May-10 16:15N 22°08' E 114°43'710.0
2015-May-10 15:33N 22°07' E 114°35'10 9.8
2015-May-10 14:33N 22°08' E 114°25'9 9.3
2015-May-10 13:33N 22°08' E 114°15'9 8.8
2015-May-10 12:32N 22°14' E 114°08'6 6.0
2015-May-10 11:33N 22°20' E 114°07'0 0.1
2015-May-10 10:23N 22°20' E 114°07'0 0.0
2015-May-10 09:32N 22°20' E 114°07'0 0.0
2015-May-10 08:26N 22°20' E 114°07'0 0.0
2015-May-10 07:32N 22°20' E 114°07'0 0.0
2015-May-10 06:32N 22°20' E 114°07'0 0.1
2015-May-10 05:29N 22°20' E 114°07'0 0.1
2015-May-10 04:32N 22°20' E 114°07'0 0.1
2015-May-10 03:32N 22°20' E 114°07'0 0.0
2015-May-10 02:32N 22°20' E 114°07'0 0.1
2015-May-10 01:32N 22°20' E 114°07'0 0.1
2015-May-10 00:32N 22°20' E 114°07'1 1.3
2015-May-09 23:33N 22°19' E 114°06'1010.2
2015-May-09 22:33N 22°10' E 114°12'1313.2
2015-May-09 21:33N 22°08' E 114°26'1817.9
2015-May-09 20:32N 21°50' E 114°22'  
2015-May-06 16:31N 01°16' E 104°14'1616.5
2015-May-06 15:33N 01°13' E 103°58'10 9.8
2015-May-06 14:33N 01°13' E 103°48'5 2.2
2015-May-06 12:28N 01°17' E 103°46'0 0.0
2015-May-06 11:28N 01°17' E 103°46'0 0.0
2015-May-06 10:28N 01°17' E 103°46'  
Track history (hours):
 
Tides and Currents Weather Stations Pressure Air Temp Water Temp Dewpoint Dewpoint Depression Visibility Wind Speed Wind Dir Waves Ship Positions

Maersk Lirquen

Last reported at 2015-May-16 08:18 UTC. Time now 2015-May-27 13:54 UTC.
Position N 36°01' E 120°22'.
Warning: this ship's position is 11 days out of date.

Length 300 m; draft 7.5 m.

Type: Ship (hazmat cat A). MMSI: 477423500.

Date/timePositionNaut miles runAvg speedWind from/ knotsBaromVisibWave heightAir tempDewpointWater temp
2015-May-16 08:18N 36°01' E 120°22'15219.7
2015-May-16 00:33N 34°51' E 123°09'2220.8
2015-May-15 23:31N 34°41' E 123°32'2020.6
2015-May-15 22:33N 34°32' E 123°53'2020.3
2015-May-15 21:33N 34°20' E 124°13'2120.8
2015-May-15 20:33N 34°09' E 124°35'2020.3
2015-May-15 19:33N 33°60' E 124°56'2120.8
2015-May-15 18:33N 33°56' E 125°21'131 2.9
2015-May-13 22:04N 31°46' E 125°01'815.8
2015-May-13 21:33N 31°41' E 124°53'1515.3
2015-May-13 20:33N 31°33' E 124°38'1515.2
2015-May-13 19:33N 31°24' E 124°24'1715.4
2015-May-13 18:27N 31°14' E 124°08'1415.6
2015-May-13 17:33N 31°05' E 123°55'1615.6
2015-May-13 16:32N 30°56' E 123°40'1616.2
2015-May-13 15:33N 30°46' E 123°25'1616.2
2015-May-13 14:33N 30°37' E 123°10'1716.3
2015-May-13 13:32N 30°35' E 122°50'1616.1
2015-May-13 12:33N 30°34' E 122°32'1414.2
2015-May-13 11:33N 30°33' E 122°16'1110.4
2015-May-13 10:30N 30°37' E 122°04'2 0.7
2015-May-13 08:20N 30°38' E 122°03'0 0.0
2015-May-13 06:32N 30°38' E 122°03'0 0.0
2015-May-13 05:32N 30°38' E 122°03'0 0.0
2015-May-13 04:32N 30°38' E 122°03'0 0.0
2015-May-13 03:32N 30°38' E 122°03'0 0.0
2015-May-13 02:29N 30°38' E 122°03'0 0.0
2015-May-13 01:29N 30°38' E 122°03'0 0.0
2015-May-13 00:29N 30°38' E 122°03'0 0.0
2015-May-12 23:32N 30°38' E 122°03'0 0.0
2015-May-12 22:32N 30°38' E 122°03'0 0.0
2015-May-12 21:32N 30°38' E 122°03'0 0.4
2015-May-12 20:33N 30°38' E 122°03'1111.1
2015-May-12 19:33N 30°34' E 122°15'5 4.8
2015-May-12 18:33N 30°33' E 122°20'1110.7
2015-May-12 17:33N 30°30' E 122°32'1 1.3
2015-May-12 16:29N 30°29' E 122°33'0 0.1
2015-May-12 15:32N 30°29' E 122°33'0 0.0
2015-May-12 14:32N 30°29' E 122°33'0 0.0
2015-May-12 13:23N 30°29' E 122°33'0 0.1
2015-May-12 11:08N 30°29' E 122°33'0 0.1
2015-May-12 09:09N 30°29' E 122°33'4 4.8
2015-May-12 08:23N 30°29' E 122°38'1314.1
2015-May-12 07:27N 30°23' E 122°51'1816.1
2015-May-12 06:22N 30°08' E 123°03'1923.2
2015-May-12 05:33N 29°49' E 123°04'2322.6
2015-May-12 04:32N 29°27' E 122°60'3022.0
2015-May-12 03:10N 28°60' E 122°45'28621.0
2015-May-11 13:33N 24°59' E 119°53'2423.9
2015-May-11 12:31N 24°43' E 119°32'2223.2
2015-May-11 11:33N 24°29' E 119°12'2222.5
2015-May-11 10:33N 24°15' E 118°54'2222.4
2015-May-11 09:34N 24°01' E 118°34'2322.7
2015-May-11 08:33N 23°46' E 118°15'2221.9
2015-May-11 07:33N 23°32' E 117°57'4722.7
2015-May-11 05:28N 23°03' E 117°17'2022.4
2015-May-11 04:33N 22°52' E 116°58'2019.9
2015-May-11 03:33N 22°41' E 116°40'11310.0
2015-May-10 16:15N 22°08' E 114°43'710.0
2015-May-10 15:33N 22°07' E 114°35'10 9.8
2015-May-10 14:33N 22°08' E 114°25'9 9.3
2015-May-10 13:33N 22°08' E 114°15'9 8.8
2015-May-10 12:32N 22°14' E 114°08'6 6.0
2015-May-10 11:33N 22°20' E 114°07'0 0.1
2015-May-10 10:23N 22°20' E 114°07'0 0.0
2015-May-10 09:32N 22°20' E 114°07'0 0.0
2015-May-10 08:26N 22°20' E 114°07'0 0.0
2015-May-10 07:32N 22°20' E 114°07'0 0.0
2015-May-10 06:32N 22°20' E 114°07'0 0.1
2015-May-10 05:29N 22°20' E 114°07'0 0.1
2015-May-10 04:32N 22°20' E 114°07'0 0.1
2015-May-10 03:32N 22°20' E 114°07'0 0.0
2015-May-10 02:32N 22°20' E 114°07'0 0.1
2015-May-10 01:32N 22°20' E 114°07'0 0.1
2015-May-10 00:32N 22°20' E 114°07'1 1.3
2015-May-09 23:33N 22°19' E 114°06'1010.2
2015-May-09 22:33N 22°10' E 114°12'1313.2
2015-May-09 21:33N 22°08' E 114°26'1817.9
2015-May-09 20:32N 21°50' E 114°22'  
2015-May-06 16:31N 01°16' E 104°14'1616.5
2015-May-06 15:33N 01°13' E 103°58'10 9.8
2015-May-06 14:33N 01°13' E 103°48'5 2.2
2015-May-06 12:28N 01°17' E 103°46'0 0.0
2015-May-06 11:28N 01°17' E 103°46'0 0.0
2015-May-06 10:28N 01°17' E 103°46'  

Dump ship's entire track history